Terminal Aerodrome Forecast
Issued by NWS

Current Version | Previous Version | Text Only | Print | Product List | Glossary On
Versions: 1 2 3 4 5 6 7 8 9 10 11 12 13 14 15
000
FTUS41 KCAR 311000 AAA
TAFFVE
TAF AMD
KFVE 311037Z 3111/0106 21008KT P6SM -RA BKN005
     FM311600 22008KT 3SM -SHRA OVC008
     FM010000 27004KT 3SM -SHRA BKN005=

USA.gov is the U.S. government's official web portal to all federal, state and local government web resources and services.